Time;durP1;ratioP1;P1;durP2;ratioP2;P2;SDS_P1;SDS_P2;PMS_P1;PMS_P2;Temp;Humidity;BMP_temperature;BMP_pressure;BME280_temperature;BME280_humidity;BME280_pressure;Samples;Min_cycle;Max_cycle;Signal;HPM_P1;HPM_P2
2022/10/10 00:01:26;;;;;;;5.27;4.77;;;8.70;1.00;;;;;;6342620;27;20239;-54
2022/10/10 00:04:30;;;;;;;8.60;5.30;;;8.70;1.00;;;;;;6333419;27;20305;-54
2022/10/10 00:07:32;;;;;;;5.30;4.87;;;8.60;1.00;;;;;;6335707;27;20696;-53
2022/10/10 00:10:36;;;;;;;5.57;5.03;;;8.60;1.00;;;;;;6325553;27;20248;-53
2022/10/10 00:13:40;;;;;;;7.00;4.90;;;8.60;1.00;;;;;;6328727;28;20266;-54
2022/10/10 00:16:43;;;;;;;5.53;4.87;;;8.50;1.00;;;;;;6335186;28;20239;-53
2022/10/10 00:19:47;;;;;;;5.00;4.70;;;8.50;1.00;;;;;;6319859;27;20388;-53
2022/10/10 00:22:50;;;;;;;6.60;4.43;;;8.50;1.00;;;;;;6336063;27;20239;-54
2022/10/10 00:25:54;;;;;;;5.30;4.90;;;8.50;1.00;;;;;;6322774;27;20237;-54
2022/10/10 00:28:56;;;;;;;6.47;4.63;;;8.40;1.00;;;;;;6322721;28;20238;-51
2022/10/10 00:31:59;;;;;;;5.53;4.97;;;8.40;1.00;;;;;;6335235;27;20260;-53
2022/10/10 00:35:05;;;;;;;6.27;4.60;;;8.40;1.00;;;;;;6332738;27;20604;-54
2022/10/10 00:38:09;;;;;;;5.83;4.37;;;8.40;1.00;;;;;;6334920;27;20311;-52
2022/10/10 00:41:13;;;;;;;4.70;4.30;;;8.40;1.00;;;;;;6332220;27;20627;-53
2022/10/10 00:44:16;;;;;;;5.10;4.70;;;8.40;1.00;;;;;;6326273;27;20621;-52
2022/10/10 00:47:19;;;;;;;6.07;4.80;;;8.30;1.00;;;;;;6334021;28;20728;-53
2022/10/10 00:50:25;;;;;;;6.37;5.07;;;8.30;1.00;;;;;;6336015;27;20233;-53
2022/10/10 00:53:32;;;;;;;5.43;4.93;;;8.30;1.00;;;;;;6324132;27;20247;-54
2022/10/10 00:56:39;;;;;;;6.63;4.63;;;8.30;1.00;;;;;;6334582;27;20223;-54
2022/10/10 00:59:45;;;;;;;4.73;4.23;;;8.30;1.00;;;;;;6328295;28;20736;-54
2022/10/10 01:02:47;;;;;;;10.73;4.50;;;8.30;1.00;;;;;;6313828;27;20251;-53
2022/10/10 01:05:52;;;;;;;5.17;4.47;;;8.30;1.00;;;;;;6334071;27;20266;-53
2022/10/10 01:08:57;;;;;;;6.07;5.00;;;8.20;1.00;;;;;;6329949;28;20237;-53
2022/10/10 01:12:09;;;;;;;6.87;4.40;;;8.10;1.00;;;;;;6308558;28;20236;-53
2022/10/10 01:15:19;;;;;;;4.80;4.50;;;8.30;1.00;;;;;;6309457;28;20225;-53
2022/10/10 01:18:29;;;;;;;5.27;4.80;;;8.10;1.00;;;;;;6308285;28;20244;-54
2022/10/10 01:21:44;;;;;;;5.63;5.13;;;8.20;1.00;;;;;;6334433;27;20451;-53
2022/10/10 01:24:58;;;;;;;5.63;5.23;;;8.40;1.00;;;;;;6329342;28;20727;-53
2022/10/10 01:28:04;;;;;;;5.80;4.80;;;8.20;1.00;;;;;;6324662;28;21269;-54
2022/10/10 01:31:12;;;;;;;5.53;4.63;;;8.10;1.00;;;;;;6334314;28;20320;-56
2022/10/10 01:34:25;;;;;;;5.00;4.60;;;8.10;1.00;;;;;;6332558;27;20235;-53
2022/10/10 01:37:37;;;;;;;5.20;4.70;;;8.30;1.00;;;;;;6325029;28;20274;-52
2022/10/10 01:40:47;;;;;;;5.30;4.80;;;8.20;1.00;;;;;;6331315;28;20224;-53
2022/10/10 01:43:53;;;;;;;5.10;4.80;;;8.00;1.00;;;;;;6329945;28;20247;-53
2022/10/10 01:46:58;;;;;;;7.00;4.87;;;8.10;1.00;;;;;;6308554;28;20505;-52
2022/10/10 01:50:07;;;;;;;5.60;4.30;;;8.00;1.00;;;;;;6321107;27;20238;-52
2022/10/10 01:53:14;;;;;;;5.07;4.63;;;8.00;1.00;;;;;;6336796;27;20247;-55
2022/10/10 01:56:29;;;;;;;4.53;4.23;;;7.90;1.00;;;;;;6315687;28;20639;-53
2022/10/10 01:59:41;;;;;;;6.07;5.10;;;8.10;1.00;;;;;;6313481;28;20375;-53
2022/10/10 02:02:50;;;;;;;8.70;5.23;;;8.10;1.00;;;;;;6317692;28;20622;-54
2022/10/10 02:05:57;;;;;;;8.33;4.83;;;7.90;1.00;;;;;;6329563;27;20281;-53
2022/10/10 02:09:04;;;;;;;7.53;5.27;;;8.00;1.00;;;;;;6313750;28;20244;-54
2022/10/10 02:12:10;;;;;;;5.13;4.60;;;7.90;1.00;;;;;;6312691;28;20502;-53
2022/10/10 02:15:16;;;;;;;6.03;5.23;;;8.00;1.00;;;;;;6326925;28;20232;-54
2022/10/10 02:18:27;;;;;;;5.13;4.57;;;7.90;1.00;;;;;;6337566;27;20230;-53
2022/10/10 02:21:31;;;;;;;5.10;4.80;;;7.90;1.00;;;;;;6333362;27;20228;-54
2022/10/10 02:24:33;;;;;;;6.13;4.87;;;7.90;1.00;;;;;;6330267;27;20231;-55
2022/10/10 02:27:42;;;;;;;5.13;4.73;;;7.90;1.00;;;;;;6316203;28;20232;-53
2022/10/10 02:30:48;;;;;;;5.03;4.63;;;7.70;1.00;;;;;;6331854;27;20244;-53
2022/10/10 02:33:57;;;;;;;5.20;4.70;;;7.70;1.00;;;;;;6328893;27;20232;-52
2022/10/10 02:37:02;;;;;;;5.30;4.60;;;7.70;1.00;;;;;;6330913;27;20384;-53
2022/10/10 02:40:07;;;;;;;5.20;4.80;;;7.80;1.00;;;;;;6337590;27;20228;-52
2022/10/10 02:43:12;;;;;;;5.00;4.70;;;7.60;1.00;;;;;;6316165;28;20590;-53
2022/10/10 02:46:15;;;;;;;8.07;4.90;;;7.80;1.00;;;;;;6319728;27;20228;-53
2022/10/10 02:49:25;;;;;;;5.40;4.90;;;7.60;1.00;;;;;;6313586;27;20236;-54
2022/10/10 02:52:28;;;;;;;7.87;4.70;;;7.80;1.00;;;;;;6342243;27;20247;-53
2022/10/10 02:55:31;;;;;;;4.87;4.57;;;7.50;1.00;;;;;;6337479;27;20331;-54
2022/10/10 02:58:34;;;;;;;5.00;4.63;;;7.50;1.00;;;;;;6336640;28;20232;-55
2022/10/10 03:01:37;;;;;;;6.00;5.40;;;7.80;1.00;;;;;;6338291;27;21734;-56
2022/10/10 03:04:43;;;;;;;6.10;4.90;;;7.70;1.00;;;;;;6334393;27;20254;-53
2022/10/10 03:07:46;;;;;;;5.53;4.90;;;7.50;1.00;;;;;;6329552;28;20236;-53
2022/10/10 03:10:56;;;;;;;7.03;5.13;;;7.60;1.00;;;;;;6333907;27;20254;-53
2022/10/10 03:13:59;;;;;;;5.73;5.30;;;7.40;1.00;;;;;;6320113;27;20229;-54
2022/10/10 03:17:02;;;;;;;7.40;4.80;;;7.30;1.00;;;;;;6336628;27;20239;-52
2022/10/10 03:20:08;;;;;;;5.67;5.10;;;7.40;1.00;;;;;;6347112;27;20384;-54
2022/10/10 03:23:11;;;;;;;5.67;5.27;;;7.40;1.00;;;;;;6340940;27;20232;-54
2022/10/10 03:26:13;;;;;;;6.63;5.23;;;7.60;1.00;;;;;;6342550;27;20231;-55
2022/10/10 03:29:16;;;;;;;6.17;5.37;;;7.70;1.00;;;;;;6322222;28;20232;-53
2022/10/10 03:32:19;;;;;;;6.03;5.00;;;7.40;1.00;;;;;;6307048;27;20236;-52
2022/10/10 03:35:23;;;;;;;5.53;5.13;;;7.50;1.00;;;;;;6330315;27;20247;-60
2022/10/10 03:38:26;;;;;;;5.20;4.83;;;7.50;1.00;;;;;;6334313;28;20227;-54
2022/10/10 03:41:29;;;;;;;8.33;5.40;;;7.60;1.00;;;;;;6335570;27;20259;-54
2022/10/10 03:44:32;;;;;;;5.50;4.80;;;7.40;1.00;;;;;;6339294;27;20232;-52
2022/10/10 03:47:34;;;;;;;6.07;5.47;;;7.40;1.00;;;;;;6329544;27;20701;-53
2022/10/10 03:50:39;;;;;;;6.47;5.33;;;7.30;1.00;;;;;;6336478;27;20688;-53
2022/10/10 03:53:42;;;;;;;5.30;4.80;;;7.30;1.00;;;;;;6334112;27;20228;-53
2022/10/10 03:56:44;;;;;;;9.10;6.07;;;7.30;1.00;;;;;;6332546;27;20592;-54
2022/10/10 03:59:47;;;;;;;6.93;5.33;;;7.30;1.00;;;;;;6340857;27;20370;-54
2022/10/10 04:02:52;;;;;;;5.93;5.30;;;7.20;1.00;;;;;;6332368;27;20235;-53
2022/10/10 04:05:56;;;;;;;5.83;5.10;;;7.20;1.00;;;;;;6335535;27;20328;-53
2022/10/10 04:08:59;;;;;;;5.73;5.30;;;7.20;1.00;;;;;;6331506;27;20232;-53
2022/10/10 04:12:02;;;;;;;9.20;5.73;;;7.10;1.00;;;;;;6333948;28;20239;-53
2022/10/10 04:15:06;;;;;;;7.33;5.50;;;7.10;1.00;;;;;;6335012;27;20251;-53
2022/10/10 04:18:09;;;;;;;8.13;6.17;;;7.20;1.00;;;;;;6336833;27;20235;-54
2022/10/10 04:21:13;;;;;;;5.30;4.93;;;7.30;1.00;;;;;;6329199;27;20611;-53
2022/10/10 04:24:16;;;;;;;5.60;5.23;;;7.10;1.00;;;;;;6340265;27;20231;-53
2022/10/10 04:27:19;;;;;;;5.83;5.43;;;7.10;1.00;;;;;;6328379;27;20231;-53
2022/10/10 04:30:21;;;;;;;6.03;5.60;;;7.10;1.00;;;;;;6331558;27;20230;-54
2022/10/10 04:33:24;;;;;;;7.20;5.67;;;7.10;1.00;;;;;;6327113;27;20243;-52
2022/10/10 04:36:28;;;;;;;5.97;5.37;;;7.10;1.00;;;;;;6329851;27;20879;-53
2022/10/10 04:39:31;;;;;;;6.00;5.50;;;6.90;1.00;;;;;;6329267;28;20232;-52
2022/10/10 04:42:34;;;;;;;6.00;5.00;;;7.10;1.00;;;;;;6330839;27;20599;-53
2022/10/10 04:45:37;;;;;;;6.77;5.50;;;7.00;1.00;;;;;;6339334;27;20236;-52
2022/10/10 04:48:39;;;;;;;8.63;5.40;;;7.00;1.00;;;;;;6335365;27;20641;-54
2022/10/10 04:51:44;;;;;;;6.07;5.53;;;7.30;1.00;;;;;;6335379;27;20758;-53
2022/10/10 04:54:46;;;;;;;7.57;6.10;;;7.20;1.00;;;;;;6339219;27;20619;-52
2022/10/10 04:57:49;;;;;;;6.57;6.07;;;7.20;1.00;;;;;;6339780;27;20246;-53
2022/10/10 05:00:52;;;;;;;8.57;6.03;;;7.10;1.00;;;;;;6328331;28;20236;-53
2022/10/10 05:03:55;;;;;;;7.20;5.80;;;6.80;1.00;;;;;;6336366;27;20239;-54
2022/10/10 05:06:59;;;;;;;6.17;5.50;;;7.00;1.00;;;;;;6322282;27;20231;-53
2022/10/10 05:10:02;;;;;;;7.13;5.67;;;7.00;1.00;;;;;;6319931;28;20252;-53
2022/10/10 05:13:05;;;;;;;6.60;6.10;;;6.90;1.00;;;;;;6332437;27;20239;-53
2022/10/10 05:16:08;;;;;;;13.30;6.90;;;6.90;1.00;;;;;;6346471;27;20239;-54
2022/10/10 05:19:11;;;;;;;8.47;6.20;;;6.90;1.00;;;;;;6335582;27;20246;-53
2022/10/10 05:22:15;;;;;;;5.90;5.33;;;6.90;1.00;;;;;;6331145;27;20232;-53
2022/10/10 05:25:18;;;;;;;7.30;5.30;;;6.80;1.00;;;;;;6327819;27;20240;-53
2022/10/10 05:28:21;;;;;;;6.40;5.80;;;6.80;1.00;;;;;;6325214;27;20235;-53
2022/10/10 05:31:24;;;;;;;6.63;5.77;;;7.00;1.00;;;;;;6329846;27;20280;-54
2022/10/10 05:34:27;;;;;;;6.20;5.60;;;7.20;1.00;;;;;;6323463;27;20798;-53
2022/10/10 05:37:31;;;;;;;8.73;6.13;;;7.00;1.00;;;;;;6332123;27;20231;-53
2022/10/10 05:40:34;;;;;;;9.07;6.03;;;6.80;1.00;;;;;;6326930;28;20466;-53
2022/10/10 05:43:37;;;;;;;6.53;5.93;;;7.00;1.00;;;;;;6328105;27;20619;-53
2022/10/10 05:46:40;;;;;;;5.83;5.33;;;7.10;1.00;;;;;;6329617;27;20626;-52
2022/10/10 05:49:43;;;;;;;6.77;6.00;;;6.70;1.00;;;;;;6330370;27;20602;-53
2022/10/10 05:52:47;;;;;;;6.37;5.80;;;7.00;1.00;;;;;;6330689;27;20421;-55
2022/10/10 05:55:50;;;;;;;6.07;5.63;;;6.90;1.00;;;;;;6329561;28;20228;-52
2022/10/10 05:58:53;;;;;;;8.33;6.17;;;7.00;1.00;;;;;;6326847;27;20239;-53
2022/10/10 06:01:56;;;;;;;6.70;6.10;;;6.90;1.00;;;;;;6328524;27;20628;-53
2022/10/10 06:04:59;;;;;;;6.43;5.83;;;7.30;1.00;;;;;;6332260;27;20247;-53
2022/10/10 06:08:03;;;;;;;6.53;5.87;;;7.10;1.00;;;;;;6338663;27;20236;-53
2022/10/10 06:11:14;;;;;;;6.73;5.90;;;7.00;1.00;;;;;;6336074;27;20244;-53
2022/10/10 06:14:17;;;;;;;5.97;5.40;;;7.30;1.00;;;;;;6322895;27;20238;-53
2022/10/10 06:17:20;;;;;;;6.27;5.67;;;7.30;1.00;;;;;;6338799;27;20757;-54
2022/10/10 06:20:23;;;;;;;6.63;6.03;;;7.20;1.00;;;;;;6338628;27;20224;-53
2022/10/10 06:23:27;;;;;;;9.73;7.40;;;7.40;1.00;;;;;;6324669;27;20333;-54
2022/10/10 06:26:30;;;;;;;6.40;5.90;;;7.40;1.00;;;;;;6339667;27;20321;-53
2022/10/10 06:29:33;;;;;;;7.60;6.40;;;7.70;1.00;;;;;;6332584;27;20251;-52
2022/10/10 06:32:37;;;;;;;6.43;5.80;;;7.60;1.00;;;;;;6329464;27;20247;-53
2022/10/10 06:35:41;;;;;;;6.20;5.70;;;7.80;1.00;;;;;;6329959;27;20964;-53
2022/10/10 06:38:46;;;;;;;6.63;5.93;;;7.40;1.00;;;;;;6324125;27;20474;-54
2022/10/10 06:41:49;;;;;;;7.00;6.30;;;7.40;1.00;;;;;;6333773;27;20610;-53
2022/10/10 06:44:51;;;;;;;6.53;5.90;;;7.30;1.00;;;;;;6326889;27;20265;-54
2022/10/10 06:47:55;;;;;;;7.13;6.17;;;7.50;1.00;;;;;;6331412;27;20236;-53
2022/10/10 06:50:59;;;;;;;8.50;6.00;;;7.60;1.00;;;;;;6336793;27;20705;-53
2022/10/10 06:54:04;;;;;;;8.90;6.87;;;8.30;1.00;;;;;;6326758;27;20599;-54
2022/10/10 06:57:07;;;;;;;8.07;6.80;;;8.50;1.00;;;;;;6332758;27;20448;-53
2022/10/10 07:00:12;;;;;;;14.37;9.67;;;8.60;1.00;;;;;;6341354;27;20232;-53
2022/10/10 07:03:15;;;;;;;9.37;7.27;;;8.50;1.00;;;;;;6338849;27;20232;-54
2022/10/10 07:06:18;;;;;;;10.40;7.07;;;8.50;1.00;;;;;;6331928;27;20247;-53
2022/10/10 07:09:22;;;;;;;8.33;7.30;;;8.50;1.00;;;;;;6345151;27;20469;-54
2022/10/10 07:12:25;;;;;;;9.03;6.40;;;8.50;1.00;;;;;;6335578;27;20390;-54
2022/10/10 07:15:32;;;;;;;7.83;6.47;;;8.60;1.00;;;;;;6336029;27;20246;-54
2022/10/10 07:18:36;;;;;;;6.73;6.03;;;8.50;1.00;;;;;;6338620;27;20626;-53
2022/10/10 07:21:39;;;;;;;11.67;7.00;;;8.60;1.00;;;;;;6337239;27;20636;-53
2022/10/10 07:24:43;;;;;;;11.17;6.23;;;8.70;1.00;;;;;;6336491;27;20841;-53
2022/10/10 07:27:46;;;;;;;11.27;6.70;;;8.70;1.00;;;;;;6328865;27;20246;-54
2022/10/10 07:30:49;;;;;;;7.70;6.03;;;8.80;1.00;;;;;;6333288;27;20239;-53
2022/10/10 07:33:51;;;;;;;7.23;6.13;;;8.80;1.00;;;;;;6337579;27;20346;-53
2022/10/10 07:36:54;;;;;;;7.83;5.97;;;8.70;1.00;;;;;;6340606;27;20454;-52
2022/10/10 07:39:58;;;;;;;8.43;6.33;;;8.70;1.00;;;;;;6344178;27;20235;-53
2022/10/10 07:43:01;;;;;;;11.43;6.80;;;8.70;1.00;;;;;;6349458;27;20263;-58
2022/10/10 07:46:05;;;;;;;9.13;6.63;;;8.80;1.00;;;;;;6338565;27;20232;-53
2022/10/10 07:49:13;;;;;;;7.57;6.03;;;8.90;1.00;;;;;;6334063;28;20232;-55
2022/10/10 07:52:16;;;;;;;13.43;6.33;;;8.90;1.00;;;;;;6343397;27;20247;-54
2022/10/10 07:55:21;;;;;;;6.90;6.33;;;9.00;1.00;;;;;;6326933;27;20422;-54
2022/10/10 07:58:23;;;;;;;10.30;6.07;;;9.20;1.00;;;;;;6342954;27;20240;-54
2022/10/10 08:01:26;;;;;;;7.27;6.40;;;9.30;1.00;;;;;;6340689;27;20235;-54
2022/10/10 08:04:29;;;;;;;8.47;6.07;;;9.40;1.00;;;;;;6335149;27;20551;-54
2022/10/10 08:07:32;;;;;;;9.20;6.60;;;9.50;1.00;;;;;;6336572;27;20256;-53
2022/10/10 08:10:36;;;;;;;7.30;6.47;;;9.60;1.00;;;;;;6337881;27;20453;-53
2022/10/10 08:13:41;;;;;;;5.87;5.23;;;9.60;1.00;;;;;;6328544;27;20228;-52
2022/10/10 08:16:44;;;;;;;5.63;5.00;;;9.60;1.00;;;;;;6336805;27;20227;-54
2022/10/10 08:19:47;;;;;;;5.17;4.97;;;9.70;1.00;;;;;;6337212;27;20824;-53
2022/10/10 08:22:50;;;;;;;5.97;5.33;;;9.90;1.00;;;;;;6333469;27;20841;-53
2022/10/10 08:25:58;;;;;;;6.13;5.13;;;10.10;1.00;;;;;;6324280;27;20378;-54
2022/10/10 08:29:01;;;;;;;6.07;5.43;;;10.30;1.00;;;;;;6331562;27;20232;-56
2022/10/10 08:32:05;;;;;;;5.47;5.00;;;10.50;1.00;;;;;;6324131;27;20241;-55
2022/10/10 08:35:08;;;;;;;6.20;5.23;;;10.60;1.00;;;;;;6318878;27;20263;-54
2022/10/10 08:38:11;;;;;;;5.77;5.23;;;10.80;1.00;;;;;;6338207;27;20224;-54
2022/10/10 08:41:32;;;;;;;8.23;5.03;;;10.90;1.00;;;;;;6324435;27;20235;-54
2022/10/10 08:44:40;;;;;;;5.30;4.90;;;11.00;1.00;;;;;;6329643;27;20225;-57
2022/10/10 08:47:48;;;;;;;7.17;6.53;;;11.20;1.00;;;;;;6330139;28;20248;-54
2022/10/10 08:50:56;;;;;;;6.27;5.70;;;11.30;1.00;;;;;;6328490;27;20243;-53
2022/10/10 08:54:04;;;;;;;5.53;5.10;;;11.60;1.00;;;;;;6332309;27;20232;-53
2022/10/10 08:57:19;;;;;;;5.40;5.10;;;11.70;1.00;;;;;;6327138;27;20543;-53
2022/10/10 09:00:25;;;;;;;5.43;4.93;;;11.90;1.00;;;;;;6338572;27;20235;-54
2022/10/10 09:03:35;;;;;;;5.50;5.10;;;11.90;1.00;;;;;;6338526;27;20236;-53
2022/10/10 09:07:02;;;;;;;5.03;4.63;;;12.00;1.00;;;;;;6331558;27;20442;-54
2022/10/10 09:10:17;;;;;;;4.67;4.40;;;12.10;1.00;;;;;;6337933;27;20231;-54
2022/10/10 09:13:31;;;;;;;5.10;4.73;;;12.20;1.00;;;;;;6333560;27;20796;-52
2022/10/10 09:16:40;;;;;;;5.00;4.70;;;12.30;1.00;;;;;;6333027;27;20566;-54
2022/10/10 09:19:53;;;;;;;4.83;4.50;;;12.30;1.00;;;;;;6323909;27;20571;-55
2022/10/10 09:23:02;;;;;;;5.30;4.80;;;12.40;1.00;;;;;;6331288;27;20378;-53
2022/10/10 09:26:09;;;;;;;10.03;5.23;;;12.50;1.00;;;;;;6333103;27;20712;-55
2022/10/10 09:29:26;;;;;;;4.73;4.40;;;12.60;1.00;;;;;;6324410;27;20603;-54
2022/10/10 09:32:34;;;;;;;5.07;4.53;;;12.80;1.00;;;;;;6332685;27;20701;-52
2022/10/10 09:35:41;;;;;;;7.07;4.70;;;12.90;1.00;;;;;;6326910;28;20358;-52
2022/10/10 09:38:48;;;;;;;5.20;4.53;;;13.00;1.00;;;;;;6334982;27;20224;-53
2022/10/10 09:41:55;;;;;;;6.10;4.30;;;13.20;1.00;;;;;;6330256;27;20250;-52
2022/10/10 09:44:59;;;;;;;4.73;4.40;;;13.30;1.00;;;;;;6327500;28;20592;-54
2022/10/10 09:48:03;;;;;;;4.87;4.27;;;13.50;1.00;;;;;;6327393;27;20239;-54
2022/10/10 09:51:08;;;;;;;6.47;4.53;;;13.70;1.00;;;;;;6325292;27;20547;-54
2022/10/10 09:54:11;;;;;;;4.77;4.37;;;14.00;1.00;;;;;;6332534;27;20232;-53
2022/10/10 09:57:19;;;;;;;4.73;4.20;;;14.10;1.00;;;;;;6329408;27;20233;-53
2022/10/10 10:00:32;;;;;;;4.87;4.47;;;14.30;1.00;;;;;;6334378;27;20232;-53
2022/10/10 10:03:35;;;;;;;4.37;4.10;;;14.50;1.00;;;;;;6336933;27;20728;-55
2022/10/10 10:06:39;;;;;;;5.03;4.43;;;14.70;1.00;;;;;;6322905;28;20717;-53
2022/10/10 10:09:47;;;;;;;4.87;3.93;;;14.60;1.00;;;;;;6330480;28;20604;-54
2022/10/10 10:12:51;;;;;;;4.07;3.87;;;14.60;1.00;;;;;;6315066;28;20248;-54
2022/10/10 10:16:04;;;;;;;4.20;3.93;;;14.60;1.00;;;;;;6335049;27;20247;-54
2022/10/10 10:19:31;;;;;;;5.20;4.60;;;14.60;1.00;;;;;;6337032;27;20229;-53
2022/10/10 10:22:37;;;;;;;5.23;3.73;;;14.60;1.00;;;;;;6333609;27;20391;-54
2022/10/10 10:25:40;;;;;;;6.83;4.00;;;14.40;1.00;;;;;;6334433;27;20228;-53
2022/10/10 10:28:43;;;;;;;4.20;3.70;;;14.30;1.00;;;;;;6334315;28;20232;-53
2022/10/10 10:31:59;;;;;;;5.90;4.20;;;14.40;1.00;;;;;;6337543;27;20246;-54
2022/10/10 10:35:16;;;;;;;9.13;4.83;;;14.60;1.00;;;;;;6331789;27;20232;-55
2022/10/10 10:38:34;;;;;;;6.37;4.80;;;14.70;1.00;;;;;;6332077;27;20400;-53
2022/10/10 10:41:45;;;;;;;4.73;3.97;;;14.80;1.00;;;;;;6332855;27;20239;-53
2022/10/10 10:44:55;;;;;;;7.00;4.20;;;14.80;1.00;;;;;;6341021;27;20235;-54
2022/10/10 10:48:11;;;;;;;4.30;3.90;;;14.90;1.00;;;;;;6337806;27;20584;-54
2022/10/10 10:51:31;;;;;;;4.77;4.53;;;14.90;1.00;;;;;;6337498;27;20248;-54
2022/10/10 10:54:48;;;;;;;4.23;4.03;;;14.90;1.00;;;;;;6341726;27;20494;-54
2022/10/10 10:58:07;;;;;;;6.03;4.67;;;15.00;1.00;;;;;;6336564;27;20220;-53
2022/10/10 11:01:36;;;;;;;5.20;4.50;;;15.10;1.00;;;;;;6329904;27;20293;-53
2022/10/10 11:05:17;;;;;;;4.27;4.07;;;15.30;1.00;;;;;;6329666;27;20232;-54
2022/10/10 11:08:57;;;;;;;5.00;4.60;;;15.50;1.00;;;;;;6336243;27;20281;-53
2022/10/10 11:12:12;;;;;;;5.10;4.60;;;15.60;1.00;;;;;;6326295;27;20379;-54
2022/10/10 11:15:19;;;;;;;4.93;4.57;;;15.70;1.00;;;;;;6330490;27;20243;-54
2022/10/10 11:18:27;;;;;;;4.07;3.80;;;15.80;1.00;;;;;;6333486;27;20809;-54
2022/10/10 11:21:34;;;;;;;5.50;4.20;;;16.00;1.00;;;;;;6340992;27;20493;-54
2022/10/10 11:24:44;;;;;;;4.50;4.10;;;16.20;1.00;;;;;;6338916;27;20243;-53
2022/10/10 11:27:52;;;;;;;4.10;3.90;;;16.30;1.00;;;;;;6342836;27;20235;-54
2022/10/10 11:30:59;;;;;;;6.07;3.77;;;16.30;1.00;;;;;;6340724;27;20239;-55
2022/10/10 11:34:07;;;;;;;4.30;4.00;;;16.30;1.00;;;;;;6320527;27;20470;-54
2022/10/10 11:37:17;;;;;;;5.97;4.57;;;16.30;1.00;;;;;;6329070;27;20228;-55
2022/10/10 11:40:35;;;;;;;6.40;5.27;;;16.30;1.00;;;;;;6331412;28;20373;-54
2022/10/10 11:43:45;;;;;;;4.60;4.40;;;16.20;1.00;;;;;;6336949;27;20228;-54
2022/10/10 11:46:56;;;;;;;4.87;4.50;;;16.40;1.00;;;;;;6339346;27;20231;-54
2022/10/10 11:50:05;;;;;;;4.77;4.03;;;16.50;1.00;;;;;;6338461;27;20247;-53
2022/10/10 11:53:17;;;;;;;4.70;4.10;;;16.60;1.00;;;;;;6340281;27;20498;-54
2022/10/10 11:56:26;;;;;;;7.80;4.37;;;16.50;1.00;;;;;;6329794;27;20247;-54
2022/10/10 11:59:34;;;;;;;7.70;6.93;;;16.60;1.00;;;;;;6335004;27;20224;-55
2022/10/10 12:02:40;;;;;;;4.50;3.97;;;16.60;1.00;;;;;;6334416;27;20232;-54
2022/10/10 12:05:51;;;;;;;4.17;3.97;;;16.70;1.00;;;;;;6343039;27;20764;-53
2022/10/10 12:09:01;;;;;;;5.00;3.90;;;16.90;1.00;;;;;;6336389;27;20724;-53
2022/10/10 12:12:10;;;;;;;4.07;3.77;;;16.90;1.00;;;;;;6343228;27;20241;-53
2022/10/10 12:15:26;;;;;;;4.40;3.90;;;16.90;1.00;;;;;;6344325;27;20717;-55
2022/10/10 12:18:32;;;;;;;4.60;3.60;;;17.10;1.00;;;;;;6338836;27;20723;-53
2022/10/10 12:21:52;;;;;;;4.97;4.33;;;17.20;1.00;;;;;;6344265;27;20236;-53
2022/10/10 12:25:21;;;;;;;5.63;4.00;;;17.30;1.00;;;;;;6336877;27;20311;-54
2022/10/10 12:28:33;;;;;;;7.83;4.83;;;17.40;1.00;;;;;;6337861;28;20224;-57
2022/10/10 12:31:37;;;;;;;4.53;3.87;;;17.40;1.00;;;;;;6327496;27;20232;-54
2022/10/10 12:34:42;;;;;;;5.43;4.20;;;17.50;1.00;;;;;;6330282;27;20227;-55
2022/10/10 12:38:24;;;;;;;6.13;4.03;;;17.60;1.00;;;;;;6335967;27;20220;-55
2022/10/10 12:41:54;;;;;;;6.47;4.13;;;17.50;1.00;;;;;;6327724;28;20236;-53
2022/10/10 12:44:57;;;;;;;4.73;4.33;;;17.50;1.00;;;;;;6334147;27;20235;-54
2022/10/10 12:48:01;;;;;;;5.57;4.33;;;17.50;1.00;;;;;;6334839;27;20239;-55
2022/10/10 12:51:19;;;;;;;4.53;4.20;;;17.50;1.00;;;;;;6329871;27;20837;-52
2022/10/10 12:54:27;;;;;;;6.37;4.30;;;17.60;1.00;;;;;;6327616;27;20764;-54
2022/10/10 12:57:35;;;;;;;4.30;3.97;;;17.60;1.00;;;;;;6331370;27;20539;-54
2022/10/10 13:00:40;;;;;;;4.43;4.10;;;17.60;1.00;;;;;;6342935;27;20235;-54
2022/10/10 13:03:46;;;;;;;4.80;4.20;;;17.70;1.00;;;;;;6331041;27;20833;-54
2022/10/10 13:06:52;;;;;;;5.60;4.40;;;17.60;1.00;;;;;;6333005;27;20228;-53
2022/10/10 13:10:05;;;;;;;5.37;4.10;;;17.60;1.00;;;;;;6325819;27;20236;-54
2022/10/10 13:13:17;;;;;;;4.40;4.10;;;17.70;1.00;;;;;;6330883;27;20665;-53
2022/10/10 13:16:23;;;;;;;4.40;4.07;;;17.60;1.00;;;;;;6330101;28;20232;-54
2022/10/10 13:19:29;;;;;;;4.07;3.77;;;17.50;1.00;;;;;;6327455;27;20227;-53
2022/10/10 13:22:35;;;;;;;8.77;5.20;;;17.60;1.00;;;;;;6332671;27;20243;-54
2022/10/10 13:25:39;;;;;;;4.57;4.13;;;17.50;1.00;;;;;;6327621;28;20422;-56
2022/10/10 13:28:44;;;;;;;6.00;4.70;;;17.50;1.00;;;;;;6333304;27;20234;-54
2022/10/10 13:31:57;;;;;;;4.13;3.93;;;17.50;1.00;;;;;;6333783;27;20239;-53
2022/10/10 13:35:04;;;;;;;4.20;4.00;;;17.60;1.00;;;;;;6323330;28;20747;-55
2022/10/10 13:38:07;;;;;;;4.80;4.47;;;17.60;1.00;;;;;;6335193;27;20243;-53
2022/10/10 13:41:10;;;;;;;4.43;4.13;;;17.60;1.00;;;;;;6333320;27;20232;-53
2022/10/10 13:44:16;;;;;;;4.63;4.23;;;17.60;1.00;;;;;;6326085;28;20680;-56
2022/10/10 13:47:50;;;;;;;9.57;4.37;;;17.50;1.00;;;;;;6334178;27;20237;-53
2022/10/10 13:51:11;;;;;;;4.80;4.60;;;17.40;1.00;;;;;;6332937;27;20231;-54
2022/10/10 13:54:43;;;;;;;5.57;4.20;;;17.50;1.00;;;;;;6326224;28;20238;-54
2022/10/10 13:57:46;;;;;;;4.90;4.53;;;17.70;1.00;;;;;;6333809;27;20566;-54
2022/10/10 14:00:56;;;;;;;7.77;5.17;;;17.70;1.00;;;;;;6329445;28;20233;-54
2022/10/10 14:04:05;;;;;;;6.23;5.07;;;17.60;1.00;;;;;;6332908;27;20275;-53
2022/10/10 14:07:13;;;;;;;4.93;4.37;;;17.70;1.00;;;;;;6332115;27;20466;-53
2022/10/10 14:10:21;;;;;;;7.47;5.17;;;17.70;1.00;;;;;;6328318;28;20283;-53
2022/10/10 14:13:24;;;;;;;4.70;4.30;;;17.80;1.00;;;;;;6332856;27;20242;-53
2022/10/10 14:16:28;;;;;;;8.43;4.43;;;17.70;1.00;;;;;;6325675;27;20373;-53
2022/10/10 14:19:32;;;;;;;4.70;4.50;;;17.60;1.00;;;;;;6331828;27;20470;-55
2022/10/10 14:22:35;;;;;;;4.93;4.63;;;17.80;1.00;;;;;;6335650;28;20235;-55
2022/10/10 14:25:39;;;;;;;4.93;4.30;;;17.80;1.00;;;;;;6344129;27;20232;-53
2022/10/10 14:28:42;;;;;;;5.53;4.53;;;17.80;1.00;;;;;;6326188;27;20247;-56
2022/10/10 14:31:47;;;;;;;5.07;4.67;;;17.70;1.00;;;;;;6332111;27;20685;-53
2022/10/10 14:34:50;;;;;;;5.73;5.30;;;17.70;1.00;;;;;;6327915;27;20720;-52
2022/10/10 14:37:52;;;;;;;5.80;5.27;;;17.60;1.00;;;;;;6335006;27;20255;-55
2022/10/10 14:40:55;;;;;;;5.83;5.33;;;17.50;1.00;;;;;;6339584;27;20238;-53
2022/10/10 14:43:58;;;;;;;5.40;4.83;;;17.50;1.00;;;;;;6327560;27;20248;-57
2022/10/10 14:47:02;;;;;;;5.10;4.40;;;17.40;1.00;;;;;;6335581;27;20249;-54
2022/10/10 14:50:14;;;;;;;6.63;5.20;;;17.30;1.00;;;;;;6330589;27;20719;-54
2022/10/10 14:53:17;;;;;;;4.93;4.63;;;17.30;1.00;;;;;;6326328;28;20323;-52
2022/10/10 14:56:20;;;;;;;8.17;5.33;;;17.20;1.00;;;;;;6336977;27;20246;-54
2022/10/10 14:59:23;;;;;;;7.40;5.50;;;17.10;1.00;;;;;;6329696;27;20236;-54
2022/10/10 15:02:47;;;;;;;4.80;4.20;;;17.00;1.00;;;;;;6333313;27;20308;-54
2022/10/10 15:05:51;;;;;;;6.70;5.00;;;16.90;1.00;;;;;;6334022;27;20228;-52
2022/10/10 15:08:54;;;;;;;6.13;5.53;;;16.80;1.00;;;;;;6334231;27;20275;-54
2022/10/10 15:11:56;;;;;;;8.87;7.20;;;16.80;1.00;;;;;;6340361;27;20713;-54
2022/10/10 15:14:59;;;;;;;5.43;4.90;;;16.70;1.00;;;;;;6333594;27;20244;-53
2022/10/10 15:18:04;;;;;;;5.53;5.23;;;16.60;1.00;;;;;;6339197;27;20258;-55
2022/10/10 15:21:10;;;;;;;6.00;5.53;;;16.60;1.00;;;;;;6335109;27;20232;-54
2022/10/10 15:24:13;;;;;;;5.20;4.70;;;16.50;1.00;;;;;;6329554;27;20246;-54
2022/10/10 15:27:16;;;;;;;12.97;5.40;;;16.40;1.00;;;;;;6333991;27;20235;-55
2022/10/10 15:30:19;;;;;;;5.40;5.00;;;16.30;1.00;;;;;;6334371;28;20236;-55
2022/10/10 15:33:23;;;;;;;5.40;5.00;;;16.30;1.00;;;;;;6330150;27;20250;-53
2022/10/10 15:36:26;;;;;;;7.20;6.50;;;16.30;1.00;;;;;;6334933;27;20228;-54
2022/10/10 15:39:29;;;;;;;6.40;5.80;;;16.20;1.00;;;;;;6333498;27;20220;-53
2022/10/10 15:42:32;;;;;;;6.83;6.20;;;16.20;1.00;;;;;;6336135;27;20235;-54
2022/10/10 15:45:36;;;;;;;10.83;5.60;;;16.20;1.00;;;;;;6331458;27;20827;-52
2022/10/10 15:49:01;;;;;;;6.03;5.63;;;16.20;1.00;;;;;;6333062;27;20423;-56
2022/10/10 15:52:04;;;;;;;5.70;5.10;;;16.10;1.00;;;;;;6336731;27;20689;-54
2022/10/10 15:55:07;;;;;;;9.00;5.60;;;16.10;1.00;;;;;;6335975;27;20259;-55
2022/10/10 15:58:10;;;;;;;5.97;5.47;;;16.00;1.00;;;;;;6333322;27;20240;-54
2022/10/10 16:01:15;;;;;;;6.70;6.10;;;16.00;1.00;;;;;;6333837;27;21437;-53
2022/10/10 16:04:21;;;;;;;7.80;5.90;;;15.80;1.00;;;;;;6333067;27;20238;-54
2022/10/10 16:07:24;;;;;;;6.40;5.90;;;15.80;1.00;;;;;;6332145;27;20219;-55
2022/10/10 16:10:37;;;;;;;6.10;5.50;;;15.70;1.00;;;;;;6333139;27;20369;-53
2022/10/10 16:13:40;;;;;;;6.77;6.13;;;15.60;1.00;;;;;;6329046;27;20235;-54
2022/10/10 16:16:43;;;;;;;8.47;5.90;;;15.50;1.00;;;;;;6329102;27;20243;-53
2022/10/10 16:19:48;;;;;;;6.40;5.87;;;15.40;1.00;;;;;;6340526;27;20310;-54
2022/10/10 16:22:51;;;;;;;6.53;5.93;;;15.40;1.00;;;;;;6330772;27;20272;-54
2022/10/10 16:26:01;;;;;;;5.90;5.50;;;15.30;1.00;;;;;;6333385;27;20236;-54
2022/10/10 16:29:08;;;;;;;6.93;5.93;;;15.20;1.00;;;;;;6347482;27;20616;-59
2022/10/10 16:32:11;;;;;;;7.40;5.97;;;15.20;1.00;;;;;;6326412;27;20310;-54